Time;durP1;ratioP1;P1;durP2;ratioP2;P2;SDS_P1;SDS_P2;PMS_P1;PMS_P2;Temp;Humidity;BMP_temperature;BMP_pressure;BME280_temperature;BME280_humidity;BME280_pressure;Samples;Min_cycle;Max_cycle;Signal;HPM_P1;HPM_P2
2022/03/19 00:00:17;;;;;;;25.25;11.98;;;;;;;5.73;77.48;104436.75;4982967;28;20100;-71
2022/03/19 00:02:43;;;;;;;21.13;11.90;;;;;;;5.74;77.52;104437.63;4984191;28;20063;-71
2022/03/19 00:05:09;;;;;;;27.83;11.00;;;;;;;5.68;78.06;104433.13;4984005;28;20053;-71
2022/03/19 00:07:37;;;;;;;30.65;10.75;;;;;;;5.61;78.12;104429.47;4983836;28;20062;-71
2022/03/19 00:10:06;;;;;;;26.95;11.35;;;;;;;5.55;78.43;104425.84;4984183;28;20503;-71
2022/03/19 00:12:32;;;;;;;18.73;10.30;;;;;;;5.61;78.50;104429.47;4984125;28;20050;-71
2022/03/19 00:14:57;;;;;;;21.08;11.00;;;;;;;5.44;78.69;104429.22;4983929;28;20109;-71
2022/03/19 00:17:23;;;;;;;26.02;11.85;;;;;;;5.41;78.79;104428.28;4983828;28;20153;-70
2022/03/19 00:19:48;;;;;;;25.73;11.15;;;;;;;5.42;78.94;104428.31;4982357;28;20038;-71
2022/03/19 00:22:14;;;;;;;24.15;11.45;;;;;;;5.33;79.20;104428.16;4983848;28;20104;-71
2022/03/19 00:24:39;;;;;;;29.45;11.25;;;;;;;5.39;79.44;104419.44;4983958;28;20108;-71
2022/03/19 00:27:05;;;;;;;22.02;10.82;;;;;;;5.40;79.49;104426.50;4984627;28;20776;-71
2022/03/19 00:29:30;;;;;;;43.55;11.15;;;;;;;5.32;79.35;104433.41;4966899;28;20038;-71
2022/03/19 00:31:56;;;;;;;27.10;12.00;;;;;;;5.30;79.66;104433.41;4984021;28;20044;-71
2022/03/19 00:34:21;;;;;;;31.55;10.82;;;;;;;5.26;79.97;104439.50;4983719;28;20092;-71
2022/03/19 00:36:47;;;;;;;23.65;11.48;;;;;;;5.30;80.24;104424.56;4965880;28;20633;-71
2022/03/19 00:39:12;;;;;;;26.67;10.05;;;;;;;5.44;79.38;104433.63;4985547;28;20205;-71
2022/03/19 00:41:39;;;;;;;34.13;10.75;;;;;;;5.33;79.76;104430.81;4984504;28;20073;-71
2022/03/19 00:44:05;;;;;;;38.03;10.48;;;;;;;5.43;79.65;104424.81;4984094;28;20042;-71
2022/03/19 00:46:30;;;;;;;29.98;10.73;;;;;;;5.35;80.01;104429.06;4984143;28;20030;-71
2022/03/19 00:48:56;;;;;;;29.95;11.85;;;;;;;5.24;79.89;104432.41;4984669;28;20053;-71
2022/03/19 00:51:21;;;;;;;24.95;9.77;;;;;;;5.38;80.24;104430.91;4966615;28;20058;-71
2022/03/19 00:53:47;;;;;;;38.30;10.85;;;;;;;5.48;79.98;104424.00;4983905;28;20057;-71
2022/03/19 00:56:12;;;;;;;31.05;10.57;;;;;;;5.37;80.12;104421.16;4983334;28;20934;-71
2022/03/19 00:58:37;;;;;;;36.03;10.68;;;;;;;5.33;79.81;104422.00;4982527;28;20045;-71
2022/03/19 01:01:03;;;;;;;18.10;9.85;;;;;;;5.29;80.62;104417.50;4982486;28;20057;-71
2022/03/19 01:03:28;;;;;;;35.05;10.27;;;;;;;5.17;80.72;104410.22;4982086;28;20046;-71
2022/03/19 01:05:55;;;;;;;34.03;10.32;;;;;;;5.13;80.59;104413.72;4983047;28;20042;-71
2022/03/19 01:08:22;;;;;;;27.02;9.38;;;;;;;5.20;80.47;104407.66;4982543;28;20041;-71
2022/03/19 01:10:47;;;;;;;29.85;9.05;;;;;;;5.13;80.70;104411.06;4982911;28;20065;-70
2022/03/19 01:13:12;;;;;;;29.27;9.98;;;;;;;5.06;81.25;104410.06;4965321;28;20055;-71
2022/03/19 01:15:38;;;;;;;27.15;10.55;;;;;;;5.06;81.42;104412.72;4983495;28;20045;-71
2022/03/19 01:18:04;;;;;;;27.15;10.38;;;;;;;5.03;81.22;104412.69;4984378;28;20769;-71
2022/03/19 01:20:30;;;;;;;33.83;10.52;;;;;;;4.95;81.37;104406.34;4980906;28;20050;-71
2022/03/19 01:22:55;;;;;;;30.23;11.18;;;;;;;4.94;81.39;104408.09;4984459;28;20066;-72
2022/03/19 01:25:21;;;;;;;25.67;10.85;;;;;;;4.91;81.36;104407.16;4983492;28;20046;-71
2022/03/19 01:27:48;;;;;;;29.63;10.15;;;;;;;4.91;81.63;104408.03;4982645;28;20038;-72
2022/03/19 01:30:19;;;;;;;36.28;11.30;;;;;;;4.94;81.58;104399.28;4982667;28;20049;-72
2022/03/19 01:32:46;;;;;;;38.53;11.35;;;;;;;4.87;81.70;104400.03;4967925;28;20074;-72
2022/03/19 01:35:12;;;;;;;35.35;11.65;;;;;;;4.87;81.57;104400.94;4946268;28;20479;-72
2022/03/19 01:37:39;;;;;;;33.95;10.43;;;;;;;4.70;81.76;104399.72;4946235;28;20415;-72
2022/03/19 01:40:07;;;;;;;33.78;11.15;;;;;;;4.73;82.03;104394.50;4963536;28;20043;-72
2022/03/19 01:42:34;;;;;;;29.35;10.65;;;;;;;4.61;81.98;104391.63;4964085;28;20403;-72
2022/03/19 01:45:02;;;;;;;36.50;11.30;;;;;;;4.54;82.25;104387.97;4963363;28;20655;-72
2022/03/19 01:47:29;;;;;;;37.17;11.52;;;;;;;4.51;82.35;104387.91;4963600;28;20613;-72
2022/03/19 01:49:55;;;;;;;39.15;11.80;;;;;;;4.43;82.46;104397.47;4963220;28;20034;-72
2022/03/19 01:52:21;;;;;;;28.48;10.70;;;;;;;4.44;82.65;104399.22;4963543;28;20200;-72
2022/03/19 01:54:49;;;;;;;27.90;11.95;;;;;;;4.51;82.64;104389.66;4963812;28;20594;-72
2022/03/19 01:57:19;;;;;;;41.95;12.35;;;;;;;4.46;82.54;104386.94;4963437;28;20622;-72
2022/03/19 01:59:44;;;;;;;33.30;12.02;;;;;;;4.52;82.42;104384.44;4971837;28;20034;-72
2022/03/19 02:02:12;;;;;;;33.00;11.93;;;;;;;4.55;82.73;104391.50;4985135;28;20035;-72
2022/03/19 02:04:39;;;;;;;35.25;11.45;;;;;;;4.48;82.48;104390.50;4984487;28;20471;-72
2022/03/19 02:07:12;;;;;;;38.20;11.70;;;;;;;4.46;82.56;104393.97;4983687;28;20076;-73
2022/03/19 02:09:38;;;;;;;;;;;;;;;4.55;82.50;104383.59;4984513;28;20050;-72
2022/03/19 02:12:04;;;;;;;40.30;12.20;;;;;;;4.51;82.64;104390.56;4965750;28;20302;-72
2022/03/19 02:14:33;;;;;;;37.50;12.57;;;;;;;4.60;82.38;104393.38;4983702;28;20061;-72
2022/03/19 02:17:01;;;;;;;34.17;12.70;;;;;;;4.57;82.62;104390.69;4983556;28;20076;-72
2022/03/19 02:19:26;;;;;;;35.63;12.60;;;;;;;4.59;82.49;104396.00;4983050;28;20042;-72
2022/03/19 02:21:52;;;;;;;40.30;12.40;;;;;;;4.59;82.55;104391.59;4982848;28;20152;-72
2022/03/19 02:27:03;;;;;;;38.40;12.93;;;;;;;4.65;82.32;104396.09;4987488;28;20668;-72
2022/03/19 02:29:30;;;;;;;30.45;11.35;;;;;;;4.64;82.01;104384.66;4986671;28;20038;-72
2022/03/19 02:32:00;;;;;;;42.63;11.82;;;;;;;4.53;82.32;104391.50;4987022;28;20046;-72
2022/03/19 02:34:26;;;;;;;30.65;10.27;;;;;;;4.48;82.27;104374.66;4986560;28;20172;-72
2022/03/19 02:36:51;;;;;;;36.53;11.73;;;;;;;4.43;82.38;104375.44;4986726;28;20042;-72
2022/03/19 02:39:20;;;;;;;35.40;12.15;;;;;;;4.51;82.45;104376.44;4986581;28;20112;-72
2022/03/19 02:41:48;;;;;;;33.83;10.77;;;;;;;4.53;82.22;104377.38;4986415;28;20460;-72
2022/03/19 02:44:16;;;;;;;32.08;12.88;;;;;;;4.45;82.13;104369.31;4986144;28;20042;-72
2022/03/19 02:46:43;;;;;;;41.15;11.85;;;;;;;4.51;82.18;104368.53;4986289;28;20034;-72
2022/03/19 02:49:09;;;;;;;34.05;12.43;;;;;;;4.39;82.29;104367.44;4986182;28;20160;-72
2022/03/19 02:51:36;;;;;;;37.65;11.63;;;;;;;4.40;82.53;104363.94;4968119;28;20069;-72
2022/03/19 02:54:07;;;;;;;35.97;12.07;;;;;;;4.30;82.49;104367.25;4986095;28;20046;-73
2022/03/19 02:56:34;;;;;;;37.63;11.63;;;;;;;4.24;82.66;104359.22;4985771;28;20038;-72
2022/03/19 02:59:13;;;;;;;41.75;11.60;;;;;;;4.11;82.63;104357.19;4986290;28;20038;-72
2022/03/19 03:01:39;;;;;;;27.98;12.07;;;;;;;4.12;83.27;104353.69;4986702;28;20129;-72
2022/03/19 03:04:05;;;;;;;49.05;12.60;;;;;;;4.08;82.67;104359.78;4987240;28;20125;-72
2022/03/19 03:06:39;;;;;;;29.70;11.25;;;;;;;3.92;82.72;104352.41;4986655;28;20069;-72
2022/03/19 03:09:05;;;;;;;32.90;11.70;;;;;;;3.87;82.79;104349.66;4986679;28;20050;-72
2022/03/19 03:11:32;;;;;;;40.08;11.50;;;;;;;3.80;83.55;104348.63;4986669;28;20034;-72
2022/03/19 03:13:58;;;;;;;35.38;11.65;;;;;;;3.77;83.58;104348.56;4986723;28;20502;-72
2022/03/19 03:16:25;;;;;;;34.00;10.68;;;;;;;3.68;83.02;104342.19;4986334;28;20046;-72
2022/03/19 03:18:51;;;;;;;25.85;11.20;;;;;;;3.62;83.46;104356.16;4986241;28;20108;-72
2022/03/19 03:21:17;;;;;;;43.53;12.27;;;;;;;3.53;84.10;104350.66;4986842;28;20691;-72
2022/03/19 03:23:42;;;;;;;30.63;11.82;;;;;;;3.53;83.90;104345.38;4985673;28;20038;-72
2022/03/19 03:26:07;;;;;;;45.38;11.82;;;;;;;3.42;84.03;104352.19;4984632;28;20038;-72
2022/03/19 03:28:33;;;;;;;43.95;12.60;;;;;;;3.37;83.35;104352.94;4984024;28;20042;-72
2022/03/19 03:30:58;;;;;;;36.50;14.30;;;;;;;3.33;83.91;104352.84;4984637;28;20042;-72
2022/03/19 03:33:24;;;;;;;30.90;12.45;;;;;;;3.27;84.23;104353.59;4984386;28;20042;-72
2022/03/19 03:35:49;;;;;;;40.55;12.32;;;;;;;3.34;84.03;104357.25;4966508;28;20415;-73
2022/03/19 03:38:15;;;;;;;59.30;13.55;;;;;;;3.33;83.75;104351.09;4983578;28;20782;-72
2022/03/19 03:40:41;;;;;;;42.45;13.68;;;;;;;3.29;83.76;104349.22;4982588;28;20112;-72
2022/03/19 03:43:08;;;;;;;34.83;11.95;;;;;;;3.29;84.08;104350.97;4981970;28;20499;-72
2022/03/19 03:45:34;;;;;;;32.72;12.35;;;;;;;3.19;84.14;104344.59;4983621;28;20061;-72
2022/03/19 03:48:00;;;;;;;46.00;13.48;;;;;;;3.20;83.60;104351.66;4984189;28;20046;-72
2022/03/19 03:50:25;;;;;;;37.78;13.82;;;;;;;3.16;83.91;104351.53;4984677;28;20128;-72
2022/03/19 03:52:51;;;;;;;40.72;13.23;;;;;;;3.14;84.42;104342.72;4985279;28;20694;-72
2022/03/19 03:55:17;;;;;;;35.75;13.13;;;;;;;3.09;84.39;104346.13;4985247;28;20100;-72
2022/03/19 03:57:42;;;;;;;33.20;13.35;;;;;;;3.13;84.25;104343.56;4985689;28;20048;-72
2022/03/19 04:00:08;;;;;;;38.55;13.93;;;;;;;3.10;84.04;104341.72;4968050;28;20046;-72
2022/03/19 04:02:41;;;;;;;41.80;12.95;;;;;;;3.12;84.86;104334.78;4985299;28;20480;-72
2022/03/19 04:05:07;;;;;;;42.22;14.35;;;;;;;3.09;84.75;104340.84;4985275;28;20034;-72
2022/03/19 04:07:33;;;;;;;35.10;12.60;;;;;;;3.09;84.39;104335.56;4985230;28;20140;-72
2022/03/19 04:09:59;;;;;;;45.25;15.07;;;;;;;3.09;84.59;104334.69;4983538;28;20125;-72
2022/03/19 04:12:24;;;;;;;38.80;12.82;;;;;;;2.94;84.45;104339.59;4984763;28;20049;-72
2022/03/19 04:14:50;;;;;;;39.72;14.65;;;;;;;2.96;84.36;104343.13;4984910;28;20049;-72
2022/03/19 04:17:15;;;;;;;46.20;14.18;;;;;;;3.07;85.31;104336.41;4985821;28;20038;-72
2022/03/19 04:19:41;;;;;;;34.15;14.40;;;;;;;3.01;84.66;104330.97;4967387;28;20053;-72
2022/03/19 04:22:07;;;;;;;32.97;13.40;;;;;;;2.94;84.03;104329.03;4966341;28;20042;-72
2022/03/19 04:24:32;;;;;;;38.85;13.27;;;;;;;2.78;84.09;104328.66;4984087;28;20034;-72
2022/03/19 04:26:58;;;;;;;33.42;14.70;;;;;;;2.93;85.02;104327.25;4983920;28;20042;-72
2022/03/19 04:29:23;;;;;;;34.88;14.60;;;;;;;2.92;85.25;104322.84;4984498;28;20053;-72
2022/03/19 04:31:49;;;;;;;40.55;14.93;;;;;;;2.91;84.75;104326.31;4984509;28;20050;-72
2022/03/19 04:34:14;;;;;;;47.58;16.10;;;;;;;2.97;85.03;104318.59;4984586;28;20775;-72
2022/03/19 04:36:41;;;;;;;40.88;15.13;;;;;;;2.84;85.01;104318.25;4966774;28;20056;-73
2022/03/19 04:39:07;;;;;;;44.42;16.13;;;;;;;2.87;84.47;104322.75;4984007;28;20549;-72
2022/03/19 04:41:35;;;;;;;37.50;15.88;;;;;;;2.89;84.97;104323.66;4983754;28;20042;-72
2022/03/19 04:44:01;;;;;;;41.88;15.27;;;;;;;2.83;84.13;104319.13;4985308;28;20497;-72
2022/03/19 04:46:26;;;;;;;36.25;14.07;;;;;;;2.80;84.62;104313.75;4983870;28;20038;-72
2022/03/19 04:48:53;;;;;;;40.67;14.60;;;;;;;2.78;84.43;104322.50;4983769;28;20065;-72
2022/03/19 04:51:20;;;;;;;45.03;15.80;;;;;;;2.80;85.15;104320.78;4984409;28;20049;-72
2022/03/19 04:53:54;;;;;;;44.38;16.25;;;;;;;2.81;84.57;104322.56;4984447;28;20042;-72
2022/03/19 04:56:23;;;;;;;41.72;16.17;;;;;;;2.78;84.71;104330.41;4984041;28;20050;-72
2022/03/19 04:58:52;;;;;;;47.92;14.65;;;;;;;2.65;84.71;104323.03;4983919;28;20116;-72
2022/03/19 05:01:17;;;;;;;40.78;14.68;;;;;;;2.69;84.75;104324.91;4983605;28;20046;-72
2022/03/19 05:03:43;;;;;;;45.67;15.70;;;;;;;2.68;84.75;104325.75;4983757;28;20487;-72
2022/03/19 05:06:09;;;;;;;43.85;15.90;;;;;;;2.63;85.06;104325.63;4984435;28;20117;-71
2022/03/19 05:08:34;;;;;;;48.65;16.20;;;;;;;2.60;84.96;104336.06;4983655;28;20046;-72
2022/03/19 05:11:17;;;;;;;37.38;16.27;;;;;;;2.63;85.01;104341.44;4983648;28;20045;-72
2022/03/19 05:13:53;;;;;;;41.63;15.95;;;;;;;2.67;85.07;104339.78;4983499;28;20050;-72
2022/03/19 05:16:19;;;;;;;50.42;16.48;;;;;;;2.59;85.12;104343.09;4983002;28;20053;-72
2022/03/19 05:18:44;;;;;;;42.05;17.23;;;;;;;2.51;85.60;104339.38;4982200;28;20050;-72
2022/03/19 05:21:13;;;;;;;57.22;16.10;;;;;;;2.48;85.32;104341.03;4971243;28;20039;-72
2022/03/19 05:23:43;;;;;;;45.42;17.42;;;;;;;2.47;85.37;104341.91;4960668;28;20042;-72
2022/03/19 05:26:10;;;;;;;49.72;16.98;;;;;;;2.50;85.53;104348.13;4961993;28;20066;-72
2022/03/19 05:28:35;;;;;;;46.00;16.42;;;;;;;2.50;85.80;104340.22;4962087;28;20049;-72
2022/03/19 05:31:02;;;;;;;59.42;18.90;;;;;;;2.51;84.90;104342.03;4963038;28;20038;-72
2022/03/19 05:36:12;;;;;;;49.03;18.55;;;;;;;2.53;84.87;104342.94;4963347;28;20116;-72
2022/03/19 05:38:37;;;;;;;54.03;18.55;;;;;;;2.55;85.37;104343.84;4963310;28;20038;-72
2022/03/19 05:41:03;;;;;;;49.53;18.85;;;;;;;2.65;85.11;104350.25;4963415;28;20506;-72
2022/03/19 05:43:28;;;;;;;47.72;18.38;;;;;;;2.72;84.55;104351.34;4963243;28;20456;-72
2022/03/19 05:45:55;;;;;;;38.97;18.30;;;;;;;2.83;84.55;104348.13;4962568;28;20134;-72
2022/03/19 05:48:20;;;;;;;43.95;17.75;;;;;;;2.91;85.02;104352.69;4963465;28;20104;-72
2022/03/19 05:50:46;;;;;;;45.90;18.13;;;;;;;2.93;84.32;104340.44;4963411;28;20058;-72
2022/03/19 05:53:12;;;;;;;53.85;19.05;;;;;;;3.13;83.86;104344.47;4963234;28;20053;-72
2022/03/19 05:55:37;;;;;;;45.05;19.95;;;;;;;3.09;84.11;104354.03;4963593;28;20050;-72
2022/03/19 05:58:02;;;;;;;44.13;19.45;;;;;;;3.09;83.39;104355.78;4963515;28;20047;-72
2022/03/19 06:00:28;;;;;;;67.05;20.65;;;;;;;3.11;83.42;104349.69;4977865;28;20459;-72
2022/03/19 06:02:53;;;;;;;42.25;18.42;;;;;;;3.15;82.96;104348.00;4982892;28;20049;-73
2022/03/19 06:05:19;;;;;;;44.25;18.35;;;;;;;3.21;83.24;104353.41;4983949;28;20030;-72
2022/03/19 06:07:44;;;;;;;48.67;18.02;;;;;;;3.24;83.20;104353.50;4983883;28;20384;-72
2022/03/19 06:10:10;;;;;;;41.03;17.27;;;;;;;3.27;82.37;104350.06;4983198;28;20054;-72
2022/03/19 06:12:35;;;;;;;39.78;17.65;;;;;;;3.42;82.54;104352.19;4983160;28;20590;-73
2022/03/19 06:15:02;;;;;;;38.17;14.80;;;;;;;3.48;81.88;104355.84;4982601;28;20107;-72
2022/03/19 06:17:27;;;;;;;38.22;15.18;;;;;;;3.57;81.83;104355.16;4982336;28;20049;-72
2022/03/19 06:19:54;;;;;;;35.05;14.55;;;;;;;3.58;81.62;104356.94;4982249;28;20043;-72
2022/03/19 06:22:20;;;;;;;32.53;13.45;;;;;;;3.62;81.41;104350.88;4964588;28;20605;-72
2022/03/19 06:24:46;;;;;;;35.95;13.77;;;;;;;3.64;81.14;104346.50;4982852;28;20031;-72
2022/03/19 06:27:11;;;;;;;29.77;13.60;;;;;;;3.73;80.99;104345.84;4982850;28;20050;-72
2022/03/19 06:29:37;;;;;;;30.23;13.65;;;;;;;3.80;80.91;104345.09;4981793;28;20126;-72
2022/03/19 06:32:03;;;;;;;27.50;13.98;;;;;;;3.99;80.23;104352.53;4981374;28;20043;-72
2022/03/19 06:34:30;;;;;;;29.05;12.13;;;;;;;4.22;79.44;104344.19;4964420;28;20046;-72
2022/03/19 06:39:40;;;;;;;31.38;12.68;;;;;;;4.40;78.83;104336.63;4982551;28;20053;-72
2022/03/19 06:42:06;;;;;;;37.03;12.68;;;;;;;4.46;78.04;104333.19;4982286;28;20037;-72
2022/03/19 06:44:33;;;;;;;27.90;11.73;;;;;;;4.68;77.37;104338.03;4981404;28;20042;-72
2022/03/19 06:46:59;;;;;;;26.40;12.27;;;;;;;4.91;77.05;104334.00;4982099;28;20042;-72
2022/03/19 06:49:26;;;;;;;27.42;10.57;;;;;;;5.05;75.98;104338.63;4982121;28;20047;-72
2022/03/19 06:51:51;;;;;;;32.22;10.68;;;;;;;5.13;75.45;104347.59;4963644;28;20112;-72
2022/03/19 06:54:16;;;;;;;27.58;10.20;;;;;;;5.35;74.78;104348.78;4978927;28;20034;-73
2022/03/19 06:56:42;;;;;;;23.58;10.50;;;;;;;5.43;73.89;104344.53;4981576;28;20069;-72
2022/03/19 06:59:07;;;;;;;27.25;9.73;;;;;;;5.77;72.89;104335.25;4981437;28;20034;-72
2022/03/19 07:01:36;;;;;;;30.40;10.02;;;;;;;5.70;72.66;104325.47;4959455;28;20454;-73
2022/03/19 07:04:02;;;;;;;22.45;8.70;;;;;;;5.87;71.49;104334.53;4981445;28;20161;-72
2022/03/19 07:06:27;;;;;;;19.05;8.40;;;;;;;6.01;71.11;104326.78;4982667;28;20109;-72
2022/03/19 07:08:53;;;;;;;19.10;8.13;;;;;;;6.33;70.49;104318.31;4984420;28;20487;-72
2022/03/19 07:11:18;;;;;;;24.27;8.98;;;;;;;6.36;69.84;104328.94;4969600;28;20045;-72
2022/03/19 07:13:44;;;;;;;19.08;7.65;;;;;;;6.55;68.95;104322.06;4987431;28;20042;-72
2022/03/19 07:16:09;;;;;;;24.25;8.43;;;;;;;6.58;69.36;104322.97;4985895;28;20046;-72
2022/03/19 07:18:35;;;;;;;19.80;8.18;;;;;;;6.64;68.50;104327.44;4985467;28;20045;-72
2022/03/19 07:21:00;;;;;;;21.80;7.72;;;;;;;7.04;68.19;104328.69;4985841;28;20046;-72
2022/03/19 07:23:26;;;;;;;14.95;7.10;;;;;;;7.05;68.20;104325.13;4986490;28;20049;-72
2022/03/19 07:25:52;;;;;;;22.65;7.57;;;;;;;7.26;67.21;104329.69;4984344;28;20035;-72
2022/03/19 07:28:18;;;;;;;18.33;7.68;;;;;;;7.41;66.91;104321.84;4988277;28;20053;-71
2022/03/19 07:30:44;;;;;;;15.82;7.50;;;;;;;7.29;66.04;104321.78;4986582;28;20495;-72
2022/03/19 07:33:10;;;;;;;25.65;7.28;;;;;;;7.61;66.06;104319.28;4986311;28;20130;-72
2022/03/19 07:35:36;;;;;;;16.60;6.90;;;;;;;7.70;66.21;104323.78;4986157;28;20039;-71
2022/03/19 07:38:02;;;;;;;14.27;7.07;;;;;;;7.64;64.54;104315.78;4985450;28;20044;-72
2022/03/19 07:43:13;;;;;;;23.65;7.80;;;;;;;8.00;64.26;104317.69;4985055;28;20053;-72
2022/03/19 07:45:40;;;;;;;25.48;7.80;;;;;;;7.95;63.23;104314.13;4984879;28;20046;-72
2022/03/19 07:48:06;;;;;;;19.90;7.22;;;;;;;7.96;63.61;104313.25;4984094;28;20053;-72
2022/03/19 07:50:32;;;;;;;25.65;7.68;;;;;;;8.00;63.56;104312.38;4984733;28;20046;-72
2022/03/19 07:52:58;;;;;;;18.15;7.07;;;;;;;8.00;63.39;104313.25;4984279;28;20041;-72
2022/03/19 07:55:24;;;;;;;19.63;7.95;;;;;;;8.28;63.64;104324.88;4965751;28;20423;-72
2022/03/19 07:57:50;;;;;;;21.92;7.13;;;;;;;8.21;62.54;104312.44;4984243;28;20030;-72
2022/03/19 08:00:15;;;;;;;18.38;7.50;;;;;;;8.25;63.47;104310.69;4984619;28;20042;-72
2022/03/19 08:02:41;;;;;;;17.30;7.22;;;;;;;8.41;62.63;104312.50;4984810;28;20235;-71
2022/03/19 08:05:07;;;;;;;21.88;8.23;;;;;;;8.17;63.22;104309.75;4984322;28;20408;-71
2022/03/19 08:07:33;;;;;;;17.45;7.03;;;;;;;8.37;62.46;104310.72;4984916;28;20030;-71
2022/03/19 08:09:58;;;;;;;17.15;7.38;;;;;;;8.47;62.70;104322.25;4984203;28;20058;-71
2022/03/19 08:12:26;;;;;;;19.38;6.88;;;;;;;8.24;61.49;104315.09;4983565;28;20042;-71
2022/03/19 08:14:51;;;;;;;16.02;6.95;;;;;;;8.65;62.02;104310.75;4966262;28;20407;-71
2022/03/19 08:17:18;;;;;;;15.45;7.68;;;;;;;8.36;62.88;104306.28;4984244;28;20045;-71
2022/03/19 08:19:45;;;;;;;16.55;6.63;;;;;;;8.22;60.46;104308.88;4983171;28;20749;-71
2022/03/19 08:22:10;;;;;;;21.00;6.82;;;;;;;8.46;62.25;104305.41;4982917;28;20046;-71
2022/03/19 08:24:36;;;;;;;19.33;6.78;;;;;;;8.64;62.26;104303.69;4983529;28;20030;-71
2022/03/19 08:27:02;;;;;;;18.73;6.68;;;;;;;8.58;62.01;104312.50;4983834;28;20448;-71
2022/03/19 08:29:27;;;;;;;20.15;6.53;;;;;;;8.54;61.63;104313.41;4984207;28;20049;-71
2022/03/19 08:31:54;;;;;;;18.60;6.95;;;;;;;8.82;61.76;104316.97;4983645;28;20516;-71
2022/03/19 08:34:20;;;;;;;23.02;6.43;;;;;;;8.87;60.15;104316.97;4983849;28;20602;-71
2022/03/19 08:36:46;;;;;;;22.08;6.35;;;;;;;8.72;60.42;104316.06;4983833;28;20042;-71
2022/03/19 08:41:57;;;;;;;18.00;6.35;;;;;;;8.84;58.34;104315.22;4984149;28;20497;-71
2022/03/19 08:44:22;;;;;;;16.80;6.05;;;;;;;8.90;56.62;104309.88;4984750;28;20518;-72
2022/03/19 08:46:49;;;;;;;19.05;5.10;;;;;;;9.17;56.54;104319.59;4983600;28;20065;-72
2022/03/19 08:49:15;;;;;;;13.27;5.55;;;;;;;9.32;57.67;104298.25;4984870;28;20034;-72
2022/03/19 08:51:40;;;;;;;15.95;6.20;;;;;;;9.44;56.47;104294.69;4983258;28;20050;-72
2022/03/19 08:54:19;;;;;;;17.92;5.55;;;;;;;9.40;55.65;104295.59;4984199;28;20967;-72
2022/03/19 08:56:46;;;;;;;14.02;5.65;;;;;;;9.62;54.88;104300.84;4984370;28;20112;-72
2022/03/19 08:59:12;;;;;;;13.93;4.70;;;;;;;9.60;54.45;104306.19;4983586;28;20105;-77
2022/03/19 09:01:40;;;;;;;13.82;4.97;;;;;;;9.52;53.47;104295.53;4966750;28;20049;-75
2022/03/19 09:04:07;;;;;;;17.85;5.38;;;;;;;9.83;53.46;104295.41;4965692;28;20100;-73
2022/03/19 09:06:34;;;;;;;14.88;5.53;;;;;;;9.83;51.17;104293.63;4983654;28;20447;-74
2022/03/19 09:09:02;;;;;;;11.60;4.10;;;;;;;9.92;51.55;104292.72;4983246;28;20054;-74
2022/03/19 09:11:28;;;;;;;17.58;4.85;;;;;;;9.91;50.15;104287.41;4965380;28;20045;-74
2022/03/19 09:13:53;;;;;;;11.75;4.57;;;;;;;9.79;50.21;104289.22;4981493;28;20042;-71
2022/03/19 09:16:20;;;;;;;16.77;4.55;;;;;;;9.98;48.50;104286.47;4980434;28;20424;-71
2022/03/19 09:18:46;;;;;;;11.50;3.95;;;;;;;10.13;48.51;104281.03;4980221;28;20119;-72
2022/03/19 09:21:12;;;;;;;8.52;3.30;;;;;;;9.95;47.54;104290.03;4974437;28;20105;-72
2022/03/19 09:23:37;;;;;;;13.90;3.38;;;;;;;9.93;45.71;104288.25;4981646;28;20737;-72
2022/03/19 09:26:03;;;;;;;8.00;3.53;;;;;;;10.35;45.71;104293.38;4964900;28;20104;-72
2022/03/19 09:28:28;;;;;;;11.32;3.67;;;;;;;10.33;46.11;104291.59;4982086;28;20046;-71
2022/03/19 09:30:54;;;;;;;11.32;3.58;;;;;;;10.28;45.59;104293.41;4982557;28;20042;-72
2022/03/19 09:33:19;;;;;;;10.43;3.10;;;;;;;10.25;45.08;104296.13;4981727;28;20801;-71
2022/03/19 09:35:46;;;;;;;11.38;3.00;;;;;;;10.29;44.49;104290.75;4971901;28;20051;-71
2022/03/19 09:38:12;;;;;;;8.52;3.60;;;;;;;10.14;44.65;104288.16;4975578;28;20042;-71
2022/03/19 09:40:38;;;;;;;8.43;3.53;;;;;;;10.70;44.97;104283.34;4963827;28;20052;-71
2022/03/19 09:43:04;;;;;;;16.00;4.22;;;;;;;10.94;45.47;104263.50;4976166;28;20053;-71
2022/03/19 09:45:29;;;;;;;7.82;3.03;;;;;;;10.60;42.26;104270.06;4962153;28;20047;-71
2022/03/19 09:47:56;;;;;;;8.02;2.40;;;;;;;10.85;42.61;104267.19;4973340;28;20038;-72
2022/03/19 09:50:22;;;;;;;7.70;2.78;;;;;;;10.63;39.33;104266.47;4981431;28;20496;-74
2022/03/19 09:52:52;;;;;;;10.57;3.67;;;;;;;10.80;38.27;104263.69;4981134;28;20181;-75
2022/03/19 09:55:18;;;;;;;13.90;3.20;;;;;;;10.88;41.14;104262.69;4982253;28;20057;-72
2022/03/19 09:57:44;;;;;;;6.97;2.80;;;;;;;11.23;38.49;104257.88;4980997;28;20046;-72
2022/03/19 10:00:11;;;;;;;7.50;2.75;;;;;;;10.80;39.46;104258.34;4980417;28;20088;-72
2022/03/19 10:02:55;;;;;;;8.10;3.03;;;;;;;10.91;38.21;104244.88;4980524;28;20046;-72
2022/03/19 10:08:41;;;;;;;9.68;4.00;;;;;;;10.87;38.22;104247.56;4981399;28;20120;-71
2022/03/19 10:11:11;;;;;;;8.75;2.85;;;;;;;11.37;39.18;104240.78;4981034;28;20042;-72
2022/03/19 10:13:45;;;;;;;6.78;2.92;;;;;;;11.06;38.07;104242.94;4980582;28;20050;-71
2022/03/19 10:16:25;;;;;;;8.40;2.90;;;;;;;11.38;41.38;104234.53;4979552;28;20505;-72
2022/03/19 10:19:18;;;;;;;10.95;3.47;;;;;;;10.88;44.56;104233.31;4963038;28;20046;-72
2022/03/19 10:21:45;;;;;;;12.95;3.83;;;;;;;11.11;42.43;104224.19;4973802;28;20054;-72
2022/03/19 10:24:25;;;;;;;11.95;3.75;;;;;;;10.86;40.10;104224.44;4980222;28;20860;-72
2022/03/19 10:26:51;;;;;;;10.43;3.80;;;;;;;10.89;39.63;104223.50;4979984;28;20118;-72
2022/03/19 10:29:26;;;;;;;11.40;3.78;;;;;;;10.81;41.12;104228.06;4980370;28;20906;-71
2022/03/19 10:31:58;;;;;;;11.63;3.85;;;;;;;11.05;42.65;104213.56;4980876;28;20074;-72
2022/03/19 10:34:23;;;;;;;5.85;2.80;;;;;;;11.25;41.67;104203.53;4964377;28;20840;-72
2022/03/19 10:36:48;;;;;;;14.23;2.70;;;;;;;11.18;39.67;104217.84;4979441;28;20042;-71
2022/03/19 10:39:26;;;;;;;7.78;3.42;;;;;;;11.00;38.75;104202.94;4981152;28;20058;-71
2022/03/19 10:41:53;;;;;;;6.32;2.50;;;;;;;11.32;36.20;104197.19;4981025;28;20050;-71
2022/03/19 10:44:20;;;;;;;11.00;2.70;;;;;;;10.99;34.65;104201.16;4982655;28;20097;-72
2022/03/19 10:46:48;;;;;;;6.43;2.50;;;;;;;11.18;35.90;104199.16;4984902;28;20446;-71
2022/03/19 10:49:15;;;;;;;7.63;2.30;;;;;;;11.26;34.73;104196.41;4984442;28;20523;-71
2022/03/19 10:51:49;;;;;;;5.85;2.28;;;;;;;11.19;35.08;104187.56;4984296;28;20050;-71
2022/03/19 10:54:16;;;;;;;8.95;2.13;;;;;;;11.16;34.46;104190.28;4983982;28;20030;-71
2022/03/19 10:56:43;;;;;;;7.00;2.25;;;;;;;11.34;34.17;104179.34;4983718;28;20038;-71
2022/03/19 10:59:08;;;;;;;4.88;2.40;;;;;;;11.88;35.56;104189.34;4984038;28;20038;-71
2022/03/19 11:01:36;;;;;;;7.72;2.38;;;;;;;11.38;34.60;104183.75;4964415;28;20069;-71
2022/03/19 11:04:03;;;;;;;4.88;2.40;;;;;;;11.51;36.22;104186.28;4981601;28;20041;-71
2022/03/19 11:06:31;;;;;;;6.10;2.88;;;;;;;11.65;36.77;104179.84;4970036;28;20055;-71
2022/03/19 11:09:02;;;;;;;6.25;2.72;;;;;;;11.64;36.01;104167.34;4983016;28;20184;-71
2022/03/19 11:11:48;;;;;;;4.93;2.47;;;;;;;11.65;36.57;104161.13;4980251;28;20034;-71
2022/03/19 11:14:22;;;;;;;4.38;2.33;;;;;;;12.00;34.98;104146.38;4984179;28;20109;-71
2022/03/19 11:17:27;;;;;;;6.40;1.98;;;;;;;11.87;35.47;104144.78;4984733;28;20050;-71
2022/03/19 11:19:55;;;;;;;9.15;2.17;;;;;;;11.91;35.37;104143.84;4981364;28;20077;-71
2022/03/19 11:22:21;;;;;;;10.57;2.60;;;;;;;11.77;33.20;104127.09;4984838;28;20125;-71
2022/03/19 11:24:58;;;;;;;6.13;2.08;;;;;;;11.89;34.17;104133.16;4983592;28;20582;-71
2022/03/19 11:27:24;;;;;;;9.98;2.58;;;;;;;12.30;35.62;104123.56;4984245;28;20128;-71
2022/03/19 11:29:50;;;;;;;7.38;2.30;;;;;;;12.18;34.74;104116.63;4984959;28;20046;-71
2022/03/19 11:32:23;;;;;;;6.90;2.30;;;;;;;11.87;35.80;104128.75;4984347;28;20054;-70
2022/03/19 11:34:51;;;;;;;5.35;2.83;;;;;;;12.06;35.23;104137.34;4984018;28;20096;-71